sensor_id;sensor_type;location;lat;lon;timestamp;P1;durP1;ratioP1;P2;durP2;ratioP2
18659;SDS011;9459;50.254;19.014;2022-08-19T00:01:51;12.85;;;9.25;;
18659;SDS011;9459;50.254;19.014;2022-08-19T00:04:22;11.60;;;8.98;;
18659;SDS011;9459;50.254;19.014;2022-08-19T00:06:52;13.93;;;9.68;;
18659;SDS011;9459;50.254;19.014;2022-08-19T00:09:22;13.27;;;9.68;;
18659;SDS011;9459;50.254;19.014;2022-08-19T00:11:51;14.48;;;9.25;;
18659;SDS011;9459;50.254;19.014;2022-08-19T00:14:19;10.82;;;9.00;;
18659;SDS011;9459;50.254;19.014;2022-08-19T00:16:48;12.52;;;9.35;;
18659;SDS011;9459;50.254;19.014;2022-08-19T00:19:19;12.00;;;9.45;;
18659;SDS011;9459;50.254;19.014;2022-08-19T00:21:48;12.57;;;9.45;;
18659;SDS011;9459;50.254;19.014;2022-08-19T00:24:16;10.38;;;9.10;;
18659;SDS011;9459;50.254;19.014;2022-08-19T00:26:45;12.18;;;9.05;;
18659;SDS011;9459;50.254;19.014;2022-08-19T00:29:15;11.63;;;9.55;;
18659;SDS011;9459;50.254;19.014;2022-08-19T00:31:45;13.18;;;9.48;;
18659;SDS011;9459;50.254;19.014;2022-08-19T00:34:16;12.90;;;9.98;;
18659;SDS011;9459;50.254;19.014;2022-08-19T00:36:46;12.60;;;10.05;;
18659;SDS011;9459;50.254;19.014;2022-08-19T00:39:15;12.50;;;10.38;;
18659;SDS011;9459;50.254;19.014;2022-08-19T00:41:44;12.93;;;9.80;;
18659;SDS011;9459;50.254;19.014;2022-08-19T00:44:16;10.63;;;9.63;;
18659;SDS011;9459;50.254;19.014;2022-08-19T00:46:53;11.38;;;10.20;;
18659;SDS011;9459;50.254;19.014;2022-08-19T00:49:25;11.70;;;10.48;;
18659;SDS011;9459;50.254;19.014;2022-08-19T00:51:57;13.90;;;9.95;;
18659;SDS011;9459;50.254;19.014;2022-08-19T00:54:28;11.68;;;9.98;;
18659;SDS011;9459;50.254;19.014;2022-08-19T00:56:58;14.85;;;10.25;;
18659;SDS011;9459;50.254;19.014;2022-08-19T00:59:27;12.50;;;10.35;;
18659;SDS011;9459;50.254;19.014;2022-08-19T01:02:16;12.30;;;11.00;;
18659;SDS011;9459;50.254;19.014;2022-08-19T01:04:44;12.43;;;10.73;;
18659;SDS011;9459;50.254;19.014;2022-08-19T01:07:14;14.95;;;10.80;;
18659;SDS011;9459;50.254;19.014;2022-08-19T01:09:45;13.05;;;11.00;;
18659;SDS011;9459;50.254;19.014;2022-08-19T01:12:14;12.27;;;10.95;;
18659;SDS011;9459;50.254;19.014;2022-08-19T01:14:43;12.88;;;11.02;;
18659;SDS011;9459;50.254;19.014;2022-08-19T01:17:12;12.35;;;10.77;;
18659;SDS011;9459;50.254;19.014;2022-08-19T01:19:42;14.02;;;11.27;;
18659;SDS011;9459;50.254;19.014;2022-08-19T01:22:12;14.13;;;11.20;;
18659;SDS011;9459;50.254;19.014;2022-08-19T01:24:54;14.18;;;11.25;;
18659;SDS011;9459;50.254;19.014;2022-08-19T01:30:06;14.25;;;11.35;;
18659;SDS011;9459;50.254;19.014;2022-08-19T01:32:35;11.55;;;10.38;;
18659;SDS011;9459;50.254;19.014;2022-08-19T01:35:03;14.27;;;11.35;;
18659;SDS011;9459;50.254;19.014;2022-08-19T01:37:41;11.63;;;10.43;;
18659;SDS011;9459;50.254;19.014;2022-08-19T01:40:12;12.30;;;10.98;;
18659;SDS011;9459;50.254;19.014;2022-08-19T01:42:41;13.73;;;11.03;;
18659;SDS011;9459;50.254;19.014;2022-08-19T01:45:09;13.30;;;11.02;;
18659;SDS011;9459;50.254;19.014;2022-08-19T01:47:38;12.23;;;11.02;;
18659;SDS011;9459;50.254;19.014;2022-08-19T01:50:07;11.85;;;10.65;;
18659;SDS011;9459;50.254;19.014;2022-08-19T01:52:36;14.37;;;11.50;;
18659;SDS011;9459;50.254;19.014;2022-08-19T01:55:05;20.75;;;12.05;;
18659;SDS011;9459;50.254;19.014;2022-08-19T01:57:37;13.73;;;10.85;;
18659;SDS011;9459;50.254;19.014;2022-08-19T02:00:07;13.07;;;10.60;;
18659;SDS011;9459;50.254;19.014;2022-08-19T02:02:39;12.35;;;11.02;;
18659;SDS011;9459;50.254;19.014;2022-08-19T02:05:16;12.88;;;11.10;;
18659;SDS011;9459;50.254;19.014;2022-08-19T02:07:47;15.82;;;11.73;;
18659;SDS011;9459;50.254;19.014;2022-08-19T02:10:17;12.55;;;10.77;;
18659;SDS011;9459;50.254;19.014;2022-08-19T02:12:49;12.90;;;11.32;;
18659;SDS011;9459;50.254;19.014;2022-08-19T02:15:18;12.48;;;11.10;;
18659;SDS011;9459;50.254;19.014;2022-08-19T02:17:47;12.48;;;11.27;;
18659;SDS011;9459;50.254;19.014;2022-08-19T02:20:16;17.15;;;11.30;;
18659;SDS011;9459;50.254;19.014;2022-08-19T02:22:44;15.13;;;11.32;;
18659;SDS011;9459;50.254;19.014;2022-08-19T02:25:13;16.00;;;11.25;;
18659;SDS011;9459;50.254;19.014;2022-08-19T02:27:42;13.70;;;11.02;;
18659;SDS011;9459;50.254;19.014;2022-08-19T02:30:13;14.63;;;10.88;;
18659;SDS011;9459;50.254;19.014;2022-08-19T02:32:43;12.65;;;11.32;;
18659;SDS011;9459;50.254;19.014;2022-08-19T02:35:11;13.50;;;10.50;;
18659;SDS011;9459;50.254;19.014;2022-08-19T02:37:40;13.27;;;10.57;;
18659;SDS011;9459;50.254;19.014;2022-08-19T02:40:27;12.55;;;10.98;;
18659;SDS011;9459;50.254;19.014;2022-08-19T02:42:55;11.60;;;9.63;;
18659;SDS011;9459;50.254;19.014;2022-08-19T02:45:25;12.15;;;10.73;;
18659;SDS011;9459;50.254;19.014;2022-08-19T02:47:53;16.15;;;11.70;;
18659;SDS011;9459;50.254;19.014;2022-08-19T02:50:23;12.05;;;10.57;;
18659;SDS011;9459;50.254;19.014;2022-08-19T02:52:52;14.20;;;11.85;;
18659;SDS011;9459;50.254;19.014;2022-08-19T02:55:20;14.25;;;11.82;;
18659;SDS011;9459;50.254;19.014;2022-08-19T02:57:48;13.00;;;11.10;;
18659;SDS011;9459;50.254;19.014;2022-08-19T03:00:17;14.75;;;10.75;;
18659;SDS011;9459;50.254;19.014;2022-08-19T03:02:47;12.45;;;10.98;;
18659;SDS011;9459;50.254;19.014;2022-08-19T03:05:15;13.60;;;11.23;;
18659;SDS011;9459;50.254;19.014;2022-08-19T03:08:04;12.60;;;11.25;;
18659;SDS011;9459;50.254;19.014;2022-08-19T03:10:32;12.25;;;10.93;;
18659;SDS011;9459;50.254;19.014;2022-08-19T03:13:00;12.05;;;10.85;;
18659;SDS011;9459;50.254;19.014;2022-08-19T03:15:30;14.43;;;11.52;;
18659;SDS011;9459;50.254;19.014;2022-08-19T03:18:00;13.75;;;11.15;;
18659;SDS011;9459;50.254;19.014;2022-08-19T03:20:28;13.43;;;11.60;;
18659;SDS011;9459;50.254;19.014;2022-08-19T03:22:57;13.73;;;11.70;;
18659;SDS011;9459;50.254;19.014;2022-08-19T03:25:25;13.10;;;11.75;;
18659;SDS011;9459;50.254;19.014;2022-08-19T03:27:53;13.60;;;11.40;;
18659;SDS011;9459;50.254;19.014;2022-08-19T03:30:21;13.65;;;11.60;;
18659;SDS011;9459;50.254;19.014;2022-08-19T03:32:50;14.07;;;10.75;;
18659;SDS011;9459;50.254;19.014;2022-08-19T03:35:24;13.23;;;11.43;;
18659;SDS011;9459;50.254;19.014;2022-08-19T03:37:52;12.77;;;10.60;;
18659;SDS011;9459;50.254;19.014;2022-08-19T03:40:20;14.75;;;11.05;;
18659;SDS011;9459;50.254;19.014;2022-08-19T03:42:49;12.32;;;10.98;;
18659;SDS011;9459;50.254;19.014;2022-08-19T03:45:17;13.98;;;11.15;;
18659;SDS011;9459;50.254;19.014;2022-08-19T03:47:46;11.75;;;10.32;;
18659;SDS011;9459;50.254;19.014;2022-08-19T03:50:14;13.75;;;11.75;;
18659;SDS011;9459;50.254;19.014;2022-08-19T03:52:48;12.52;;;10.88;;
18659;SDS011;9459;50.254;19.014;2022-08-19T03:55:18;11.90;;;10.75;;
18659;SDS011;9459;50.254;19.014;2022-08-19T03:57:47;11.63;;;10.43;;
18659;SDS011;9459;50.254;19.014;2022-08-19T04:00:15;12.32;;;10.57;;
18659;SDS011;9459;50.254;19.014;2022-08-19T04:02:44;12.07;;;10.88;;
18659;SDS011;9459;50.254;19.014;2022-08-19T04:05:26;12.55;;;10.90;;
18659;SDS011;9459;50.254;19.014;2022-08-19T04:07:57;14.32;;;10.70;;
18659;SDS011;9459;50.254;19.014;2022-08-19T04:10:26;12.83;;;10.80;;
18659;SDS011;9459;50.254;19.014;2022-08-19T04:12:54;10.93;;;9.82;;
18659;SDS011;9459;50.254;19.014;2022-08-19T04:15:22;12.35;;;10.20;;
18659;SDS011;9459;50.254;19.014;2022-08-19T04:17:51;14.23;;;10.32;;
18659;SDS011;9459;50.254;19.014;2022-08-19T04:20:19;13.48;;;10.70;;
18659;SDS011;9459;50.254;19.014;2022-08-19T04:22:48;10.88;;;9.75;;
18659;SDS011;9459;50.254;19.014;2022-08-19T04:25:17;11.82;;;10.60;;
18659;SDS011;9459;50.254;19.014;2022-08-19T04:27:45;14.13;;;10.32;;
18659;SDS011;9459;50.254;19.014;2022-08-19T04:30:15;12.35;;;10.75;;
18659;SDS011;9459;50.254;19.014;2022-08-19T04:32:44;14.18;;;10.75;;
18659;SDS011;9459;50.254;19.014;2022-08-19T04:35:12;12.57;;;10.30;;
18659;SDS011;9459;50.254;19.014;2022-08-19T04:37:45;13.85;;;10.55;;
18659;SDS011;9459;50.254;19.014;2022-08-19T04:40:13;15.48;;;10.80;;
18659;SDS011;9459;50.254;19.014;2022-08-19T04:43:00;12.02;;;9.48;;
18659;SDS011;9459;50.254;19.014;2022-08-19T04:45:28;11.45;;;9.93;;
18659;SDS011;9459;50.254;19.014;2022-08-19T04:48:09;12.13;;;9.48;;
18659;SDS011;9459;50.254;19.014;2022-08-19T04:50:53;13.00;;;9.15;;
18659;SDS011;9459;50.254;19.014;2022-08-19T04:53:24;11.55;;;9.43;;
18659;SDS011;9459;50.254;19.014;2022-08-19T04:56:04;10.82;;;9.75;;
18659;SDS011;9459;50.254;19.014;2022-08-19T04:58:36;12.50;;;9.88;;
18659;SDS011;9459;50.254;19.014;2022-08-19T05:01:06;10.73;;;9.05;;
18659;SDS011;9459;50.254;19.014;2022-08-19T05:03:36;11.27;;;9.82;;
18659;SDS011;9459;50.254;19.014;2022-08-19T05:06:05;10.82;;;9.73;;
18659;SDS011;9459;50.254;19.014;2022-08-19T05:08:35;10.50;;;9.48;;
18659;SDS011;9459;50.254;19.014;2022-08-19T05:11:07;12.50;;;9.40;;
18659;SDS011;9459;50.254;19.014;2022-08-19T05:13:41;11.23;;;9.65;;
18659;SDS011;9459;50.254;19.014;2022-08-19T05:16:11;10.15;;;9.15;;
18659;SDS011;9459;50.254;19.014;2022-08-19T05:18:40;11.05;;;9.82;;
18659;SDS011;9459;50.254;19.014;2022-08-19T05:21:40;14.02;;;9.30;;
18659;SDS011;9459;50.254;19.014;2022-08-19T05:24:27;10.65;;;9.65;;
18659;SDS011;9459;50.254;19.014;2022-08-19T05:26:57;14.20;;;9.68;;
18659;SDS011;9459;50.254;19.014;2022-08-19T05:29:27;12.38;;;9.32;;
18659;SDS011;9459;50.254;19.014;2022-08-19T05:32:02;10.73;;;8.63;;
18659;SDS011;9459;50.254;19.014;2022-08-19T05:34:35;12.07;;;9.63;;
18659;SDS011;9459;50.254;19.014;2022-08-19T05:37:05;10.65;;;9.52;;
18659;SDS011;9459;50.254;19.014;2022-08-19T05:39:34;13.23;;;9.07;;
18659;SDS011;9459;50.254;19.014;2022-08-19T05:42:04;11.52;;;9.23;;
18659;SDS011;9459;50.254;19.014;2022-08-19T05:44:36;12.55;;;9.20;;
18659;SDS011;9459;50.254;19.014;2022-08-19T05:47:06;12.68;;;9.95;;
18659;SDS011;9459;50.254;19.014;2022-08-19T05:49:35;10.00;;;8.00;;
18659;SDS011;9459;50.254;19.014;2022-08-19T05:52:04;10.88;;;8.90;;
18659;SDS011;9459;50.254;19.014;2022-08-19T05:54:34;12.60;;;8.85;;
18659;SDS011;9459;50.254;19.014;2022-08-19T05:57:04;10.23;;;9.15;;
18659;SDS011;9459;50.254;19.014;2022-08-19T05:59:35;11.73;;;8.55;;
18659;SDS011;9459;50.254;19.014;2022-08-19T06:02:05;12.50;;;9.15;;
18659;SDS011;9459;50.254;19.014;2022-08-19T06:04:34;15.15;;;9.18;;
18659;SDS011;9459;50.254;19.014;2022-08-19T06:07:02;11.32;;;8.73;;
18659;SDS011;9459;50.254;19.014;2022-08-19T06:09:39;11.52;;;8.68;;
18659;SDS011;9459;50.254;19.014;2022-08-19T06:12:25;12.15;;;8.93;;
18659;SDS011;9459;50.254;19.014;2022-08-19T06:14:57;9.60;;;8.60;;
18659;SDS011;9459;50.254;19.014;2022-08-19T06:17:26;10.15;;;9.10;;
18659;SDS011;9459;50.254;19.014;2022-08-19T06:19:57;11.40;;;8.77;;
18659;SDS011;9459;50.254;19.014;2022-08-19T06:22:26;12.23;;;8.73;;
18659;SDS011;9459;50.254;19.014;2022-08-19T06:24:54;11.25;;;8.82;;
18659;SDS011;9459;50.254;19.014;2022-08-19T06:27:23;13.43;;;8.70;;
18659;SDS011;9459;50.254;19.014;2022-08-19T06:29:51;11.18;;;8.95;;
18659;SDS011;9459;50.254;19.014;2022-08-19T06:32:22;11.35;;;9.77;;
18659;SDS011;9459;50.254;19.014;2022-08-19T06:34:50;12.88;;;8.77;;
18659;SDS011;9459;50.254;19.014;2022-08-19T06:37:18;11.00;;;8.55;;
18659;SDS011;9459;50.254;19.014;2022-08-19T06:39:49;12.40;;;8.65;;
18659;SDS011;9459;50.254;19.014;2022-08-19T06:42:18;12.57;;;8.90;;
18659;SDS011;9459;50.254;19.014;2022-08-19T06:44:49;12.02;;;8.52;;
18659;SDS011;9459;50.254;19.014;2022-08-19T06:47:20;11.48;;;8.77;;
18659;SDS011;9459;50.254;19.014;2022-08-19T06:49:54;14.32;;;8.95;;
18659;SDS011;9459;50.254;19.014;2022-08-19T06:52:28;10.43;;;8.15;;
18659;SDS011;9459;50.254;19.014;2022-08-19T06:54:59;13.85;;;8.23;;
18659;SDS011;9459;50.254;19.014;2022-08-19T06:57:32;11.40;;;8.52;;
18659;SDS011;9459;50.254;19.014;2022-08-19T07:00:01;10.82;;;8.13;;
18659;SDS011;9459;50.254;19.014;2022-08-19T07:02:31;12.15;;;9.45;;
18659;SDS011;9459;50.254;19.014;2022-08-19T07:05:00;11.47;;;8.00;;
18659;SDS011;9459;50.254;19.014;2022-08-19T07:07:32;11.80;;;9.38;;
18659;SDS011;9459;50.254;19.014;2022-08-19T07:10:00;14.98;;;8.50;;
18659;SDS011;9459;50.254;19.014;2022-08-19T07:12:31;10.07;;;7.88;;
18659;SDS011;9459;50.254;19.014;2022-08-19T07:15:01;15.10;;;8.45;;
18659;SDS011;9459;50.254;19.014;2022-08-19T07:17:32;12.77;;;7.95;;
18659;SDS011;9459;50.254;19.014;2022-08-19T07:20:01;10.48;;;8.23;;
18659;SDS011;9459;50.254;19.014;2022-08-19T07:22:35;10.88;;;8.13;;
18659;SDS011;9459;50.254;19.014;2022-08-19T07:25:03;13.20;;;8.80;;
18659;SDS011;9459;50.254;19.014;2022-08-19T07:27:34;10.90;;;8.35;;
18659;SDS011;9459;50.254;19.014;2022-08-19T07:30:05;12.38;;;8.07;;
18659;SDS011;9459;50.254;19.014;2022-08-19T07:32:39;9.75;;;8.25;;
18659;SDS011;9459;50.254;19.014;2022-08-19T07:35:07;10.70;;;8.57;;
18659;SDS011;9459;50.254;19.014;2022-08-19T07:37:37;10.75;;;8.30;;
18659;SDS011;9459;50.254;19.014;2022-08-19T07:40:11;11.15;;;7.95;;
18659;SDS011;9459;50.254;19.014;2022-08-19T07:42:39;9.88;;;8.32;;
18659;SDS011;9459;50.254;19.014;2022-08-19T07:45:09;9.95;;;8.32;;
18659;SDS011;9459;50.254;19.014;2022-08-19T07:47:38;15.57;;;9.32;;
18659;SDS011;9459;50.254;19.014;2022-08-19T07:50:14;10.70;;;8.90;;
18659;SDS011;9459;50.254;19.014;2022-08-19T07:52:42;11.57;;;8.07;;
18659;SDS011;9459;50.254;19.014;2022-08-19T07:55:16;12.35;;;8.35;;
18659;SDS011;9459;50.254;19.014;2022-08-19T07:58:06;12.38;;;8.45;;
18659;SDS011;9459;50.254;19.014;2022-08-19T08:00:35;11.70;;;8.50;;
18659;SDS011;9459;50.254;19.014;2022-08-19T08:03:04;10.65;;;8.40;;
18659;SDS011;9459;50.254;19.014;2022-08-19T08:05:33;11.02;;;8.25;;
18659;SDS011;9459;50.254;19.014;2022-08-19T08:08:19;13.05;;;8.10;;
18659;SDS011;9459;50.254;19.014;2022-08-19T08:11:11;11.70;;;8.85;;
18659;SDS011;9459;50.254;19.014;2022-08-19T08:13:41;12.35;;;9.00;;
18659;SDS011;9459;50.254;19.014;2022-08-19T08:16:09;10.23;;;8.50;;
18659;SDS011;9459;50.254;19.014;2022-08-19T08:18:41;13.40;;;9.43;;
18659;SDS011;9459;50.254;19.014;2022-08-19T08:21:18;10.10;;;7.85;;
18659;SDS011;9459;50.254;19.014;2022-08-19T08:23:47;13.43;;;9.23;;
18659;SDS011;9459;50.254;19.014;2022-08-19T08:26:18;12.60;;;8.23;;
18659;SDS011;9459;50.254;19.014;2022-08-19T08:28:47;12.32;;;8.82;;
18659;SDS011;9459;50.254;19.014;2022-08-19T08:31:16;13.02;;;8.68;;
18659;SDS011;9459;50.254;19.014;2022-08-19T08:33:47;13.45;;;9.75;;
18659;SDS011;9459;50.254;19.014;2022-08-19T08:36:15;14.18;;;9.40;;
18659;SDS011;9459;50.254;19.014;2022-08-19T08:38:44;13.15;;;9.15;;
18659;SDS011;9459;50.254;19.014;2022-08-19T08:41:16;12.15;;;9.65;;
18659;SDS011;9459;50.254;19.014;2022-08-19T08:43:49;12.15;;;9.50;;
18659;SDS011;9459;50.254;19.014;2022-08-19T08:46:21;12.82;;;9.73;;
18659;SDS011;9459;50.254;19.014;2022-08-19T08:49:02;14.93;;;8.70;;
18659;SDS011;9459;50.254;19.014;2022-08-19T08:51:36;14.43;;;9.23;;
18659;SDS011;9459;50.254;19.014;2022-08-19T08:54:12;11.85;;;8.68;;
18659;SDS011;9459;50.254;19.014;2022-08-19T08:56:43;15.02;;;9.73;;
18659;SDS011;9459;50.254;19.014;2022-08-19T08:59:12;12.30;;;8.45;;
18659;SDS011;9459;50.254;19.014;2022-08-19T09:01:44;11.23;;;8.82;;
18659;SDS011;9459;50.254;19.014;2022-08-19T09:04:14;15.65;;;9.70;;
18659;SDS011;9459;50.254;19.014;2022-08-19T09:06:46;13.32;;;8.82;;
18659;SDS011;9459;50.254;19.014;2022-08-19T09:09:19;11.10;;;8.85;;
18659;SDS011;9459;50.254;19.014;2022-08-19T09:11:55;9.93;;;8.35;;
18659;SDS011;9459;50.254;19.014;2022-08-19T09:14:34;13.40;;;8.30;;
18659;SDS011;9459;50.254;19.014;2022-08-19T09:17:18;10.38;;;8.23;;
18659;SDS011;9459;50.254;19.014;2022-08-19T09:19:52;11.48;;;8.13;;
18659;SDS011;9459;50.254;19.014;2022-08-19T09:22:23;10.93;;;8.40;;
18659;SDS011;9459;50.254;19.014;2022-08-19T09:24:53;11.50;;;7.85;;
18659;SDS011;9459;50.254;19.014;2022-08-19T09:27:22;11.38;;;7.75;;
18659;SDS011;9459;50.254;19.014;2022-08-19T09:30:10;9.20;;;7.95;;
18659;SDS011;9459;50.254;19.014;2022-08-19T09:32:41;11.13;;;8.07;;
18659;SDS011;9459;50.254;19.014;2022-08-19T09:35:12;13.05;;;7.78;;
18659;SDS011;9459;50.254;19.014;2022-08-19T09:40:11;9.30;;;6.97;;
18659;SDS011;9459;50.254;19.014;2022-08-19T09:42:41;10.68;;;6.80;;
18659;SDS011;9459;50.254;19.014;2022-08-19T09:45:16;10.32;;;6.47;;
18659;SDS011;9459;50.254;19.014;2022-08-19T09:47:49;9.20;;;7.20;;
18659;SDS011;9459;50.254;19.014;2022-08-19T09:50:22;10.93;;;7.30;;
18659;SDS011;9459;50.254;19.014;2022-08-19T09:52:51;10.77;;;8.05;;
18659;SDS011;9459;50.254;19.014;2022-08-19T09:55:23;9.95;;;7.68;;
18659;SDS011;9459;50.254;19.014;2022-08-19T09:57:59;11.45;;;7.18;;
18659;SDS011;9459;50.254;19.014;2022-08-19T10:00:28;6.67;;;5.70;;
18659;SDS011;9459;50.254;19.014;2022-08-19T10:02:57;7.97;;;6.53;;
18659;SDS011;9459;50.254;19.014;2022-08-19T10:05:28;9.18;;;6.15;;
18659;SDS011;9459;50.254;19.014;2022-08-19T10:08:14;13.98;;;7.30;;
18659;SDS011;9459;50.254;19.014;2022-08-19T10:10:46;8.57;;;7.00;;
18659;SDS011;9459;50.254;19.014;2022-08-19T10:13:16;7.22;;;5.82;;
18659;SDS011;9459;50.254;19.014;2022-08-19T10:18:15;11.15;;;6.63;;
18659;SDS011;9459;50.254;19.014;2022-08-19T10:20:46;7.28;;;5.40;;
18659;SDS011;9459;50.254;19.014;2022-08-19T10:23:18;7.82;;;5.88;;
18659;SDS011;9459;50.254;19.014;2022-08-19T10:25:46;7.55;;;6.50;;
18659;SDS011;9459;50.254;19.014;2022-08-19T10:28:15;6.40;;;5.60;;
18659;SDS011;9459;50.254;19.014;2022-08-19T10:30:45;7.93;;;5.90;;
18659;SDS011;9459;50.254;19.014;2022-08-19T10:33:14;10.45;;;6.22;;
18659;SDS011;9459;50.254;19.014;2022-08-19T10:36:05;12.57;;;6.05;;
18659;SDS011;9459;50.254;19.014;2022-08-19T10:38:34;10.57;;;6.25;;
18659;SDS011;9459;50.254;19.014;2022-08-19T10:41:08;8.13;;;5.75;;
18659;SDS011;9459;50.254;19.014;2022-08-19T10:43:38;7.38;;;5.55;;
18659;SDS011;9459;50.254;19.014;2022-08-19T10:46:07;7.47;;;5.60;;
18659;SDS011;9459;50.254;19.014;2022-08-19T10:48:42;6.75;;;5.70;;
18659;SDS011;9459;50.254;19.014;2022-08-19T10:53:59;8.60;;;5.63;;
18659;SDS011;9459;50.254;19.014;2022-08-19T10:56:32;7.68;;;5.78;;
18659;SDS011;9459;50.254;19.014;2022-08-19T10:59:18;6.70;;;5.53;;
18659;SDS011;9459;50.254;19.014;2022-08-19T11:01:53;7.97;;;6.03;;
18659;SDS011;9459;50.254;19.014;2022-08-19T11:04:23;8.32;;;5.70;;
18659;SDS011;9459;50.254;19.014;2022-08-19T11:06:56;7.55;;;6.05;;
18659;SDS011;9459;50.254;19.014;2022-08-19T11:09:25;12.32;;;5.72;;
18659;SDS011;9459;50.254;19.014;2022-08-19T11:12:00;9.60;;;6.03;;
18659;SDS011;9459;50.254;19.014;2022-08-19T11:14:31;9.30;;;5.68;;
18659;SDS011;9459;50.254;19.014;2022-08-19T11:17:01;7.40;;;5.10;;
18659;SDS011;9459;50.254;19.014;2022-08-19T11:19:29;8.90;;;6.05;;
18659;SDS011;9459;50.254;19.014;2022-08-19T11:21:59;10.50;;;5.72;;
18659;SDS011;9459;50.254;19.014;2022-08-19T11:24:29;7.28;;;5.50;;
18659;SDS011;9459;50.254;19.014;2022-08-19T11:27:03;8.43;;;5.68;;
18659;SDS011;9459;50.254;19.014;2022-08-19T11:29:32;8.10;;;5.35;;
18659;SDS011;9459;50.254;19.014;2022-08-19T11:32:02;9.00;;;5.82;;
18659;SDS011;9459;50.254;19.014;2022-08-19T11:34:32;10.93;;;5.65;;
18659;SDS011;9459;50.254;19.014;2022-08-19T11:37:03;11.88;;;5.93;;
18659;SDS011;9459;50.254;19.014;2022-08-19T11:39:32;10.05;;;6.03;;
18659;SDS011;9459;50.254;19.014;2022-08-19T11:42:03;9.00;;;5.37;;
18659;SDS011;9459;50.254;19.014;2022-08-19T11:44:54;15.93;;;5.57;;
18659;SDS011;9459;50.254;19.014;2022-08-19T11:47:22;8.43;;;5.40;;
18659;SDS011;9459;50.254;19.014;2022-08-19T11:49:50;10.10;;;5.25;;
18659;SDS011;9459;50.254;19.014;2022-08-19T11:52:21;9.75;;;5.30;;
18659;SDS011;9459;50.254;19.014;2022-08-19T11:54:49;8.00;;;5.63;;
18659;SDS011;9459;50.254;19.014;2022-08-19T11:57:18;7.50;;;5.70;;
18659;SDS011;9459;50.254;19.014;2022-08-19T11:59:49;7.90;;;5.72;;
18659;SDS011;9459;50.254;19.014;2022-08-19T12:02:18;9.45;;;6.05;;
18659;SDS011;9459;50.254;19.014;2022-08-19T12:04:48;6.55;;;5.32;;
18659;SDS011;9459;50.254;19.014;2022-08-19T12:07:16;7.18;;;5.32;;
18659;SDS011;9459;50.254;19.014;2022-08-19T12:09:46;5.13;;;4.60;;
18659;SDS011;9459;50.254;19.014;2022-08-19T12:12:15;7.75;;;5.00;;
18659;SDS011;9459;50.254;19.014;2022-08-19T12:14:43;7.30;;;4.80;;
18659;SDS011;9459;50.254;19.014;2022-08-19T12:17:13;8.17;;;5.80;;
18659;SDS011;9459;50.254;19.014;2022-08-19T12:19:42;4.93;;;4.20;;
18659;SDS011;9459;50.254;19.014;2022-08-19T12:22:10;6.45;;;4.85;;
18659;SDS011;9459;50.254;19.014;2022-08-19T12:24:38;7.70;;;5.07;;
18659;SDS011;9459;50.254;19.014;2022-08-19T12:27:08;7.60;;;5.18;;
18659;SDS011;9459;50.254;19.014;2022-08-19T12:29:38;9.77;;;5.03;;
18659;SDS011;9459;50.254;19.014;2022-08-19T12:32:08;6.10;;;4.80;;
18659;SDS011;9459;50.254;19.014;2022-08-19T12:34:38;12.02;;;4.90;;
18659;SDS011;9459;50.254;19.014;2022-08-19T12:37:06;8.88;;;5.00;;
18659;SDS011;9459;50.254;19.014;2022-08-19T12:39:35;8.73;;;5.32;;
18659;SDS011;9459;50.254;19.014;2022-08-19T12:42:05;12.23;;;5.83;;
18659;SDS011;9459;50.254;19.014;2022-08-19T12:44:36;12.00;;;5.70;;
18659;SDS011;9459;50.254;19.014;2022-08-19T12:47:08;10.02;;;5.53;;
18659;SDS011;9459;50.254;19.014;2022-08-19T12:49:38;12.17;;;5.07;;
18659;SDS011;9459;50.254;19.014;2022-08-19T12:52:20;9.90;;;5.40;;
18659;SDS011;9459;50.254;19.014;2022-08-19T12:54:49;7.35;;;5.53;;
18659;SDS011;9459;50.254;19.014;2022-08-19T12:57:20;9.40;;;6.03;;
18659;SDS011;9459;50.254;19.014;2022-08-19T13:00:01;8.20;;;4.93;;
18659;SDS011;9459;50.254;19.014;2022-08-19T13:02:34;7.85;;;4.90;;
18659;SDS011;9459;50.254;19.014;2022-08-19T13:05:06;10.18;;;5.40;;
18659;SDS011;9459;50.254;19.014;2022-08-19T13:07:36;10.25;;;5.30;;
18659;SDS011;9459;50.254;19.014;2022-08-19T13:10:05;9.25;;;5.82;;
18659;SDS011;9459;50.254;19.014;2022-08-19T13:12:35;7.70;;;5.00;;
18659;SDS011;9459;50.254;19.014;2022-08-19T13:15:05;12.50;;;5.63;;
18659;SDS011;9459;50.254;19.014;2022-08-19T13:17:37;9.38;;;5.53;;
18659;SDS011;9459;50.254;19.014;2022-08-19T13:20:06;10.95;;;5.55;;
18659;SDS011;9459;50.254;19.014;2022-08-19T13:22:36;7.32;;;5.63;;
18659;SDS011;9459;50.254;19.014;2022-08-19T13:25:05;8.68;;;5.00;;
18659;SDS011;9459;50.254;19.014;2022-08-19T13:27:35;9.40;;;5.00;;
18659;SDS011;9459;50.254;19.014;2022-08-19T13:30:06;5.53;;;4.57;;
18659;SDS011;9459;50.254;19.014;2022-08-19T13:32:53;12.30;;;5.18;;
18659;SDS011;9459;50.254;19.014;2022-08-19T13:35:43;12.68;;;5.40;;
18659;SDS011;9459;50.254;19.014;2022-08-19T13:38:13;11.50;;;5.60;;
18659;SDS011;9459;50.254;19.014;2022-08-19T13:40:43;8.23;;;5.18;;
18659;SDS011;9459;50.254;19.014;2022-08-19T13:43:11;9.50;;;5.07;;
18659;SDS011;9459;50.254;19.014;2022-08-19T13:45:52;6.40;;;5.00;;
18659;SDS011;9459;50.254;19.014;2022-08-19T13:48:23;8.13;;;5.25;;
18659;SDS011;9459;50.254;19.014;2022-08-19T13:50:53;11.05;;;6.20;;
18659;SDS011;9459;50.254;19.014;2022-08-19T13:53:21;13.00;;;5.80;;
18659;SDS011;9459;50.254;19.014;2022-08-19T13:55:50;13.40;;;5.80;;
18659;SDS011;9459;50.254;19.014;2022-08-19T13:58:20;11.02;;;5.95;;
18659;SDS011;9459;50.254;19.014;2022-08-19T14:00:48;8.75;;;5.10;;
18659;SDS011;9459;50.254;19.014;2022-08-19T14:03:18;9.45;;;5.47;;
18659;SDS011;9459;50.254;19.014;2022-08-19T14:05:46;10.03;;;5.87;;
18659;SDS011;9459;50.254;19.014;2022-08-19T14:08:15;10.38;;;5.55;;
18659;SDS011;9459;50.254;19.014;2022-08-19T14:10:43;8.38;;;5.97;;
18659;SDS011;9459;50.254;19.014;2022-08-19T14:13:13;8.50;;;5.63;;
18659;SDS011;9459;50.254;19.014;2022-08-19T14:15:42;9.53;;;5.17;;
18659;SDS011;9459;50.254;19.014;2022-08-19T14:18:11;10.85;;;5.60;;
18659;SDS011;9459;50.254;19.014;2022-08-19T14:20:41;12.65;;;5.97;;
18659;SDS011;9459;50.254;19.014;2022-08-19T14:23:09;9.53;;;5.63;;
18659;SDS011;9459;50.254;19.014;2022-08-19T14:25:38;10.60;;;5.35;;
18659;SDS011;9459;50.254;19.014;2022-08-19T14:28:07;10.02;;;5.20;;
18659;SDS011;9459;50.254;19.014;2022-08-19T14:30:36;10.27;;;5.30;;
18659;SDS011;9459;50.254;19.014;2022-08-19T14:33:05;9.95;;;5.07;;
18659;SDS011;9459;50.254;19.014;2022-08-19T14:35:36;12.15;;;6.18;;
18659;SDS011;9459;50.254;19.014;2022-08-19T14:38:14;12.95;;;7.13;;
18659;SDS011;9459;50.254;19.014;2022-08-19T14:40:43;11.80;;;5.90;;
18659;SDS011;9459;50.254;19.014;2022-08-19T14:43:12;10.15;;;5.20;;
18659;SDS011;9459;50.254;19.014;2022-08-19T14:45:44;11.15;;;4.97;;
18659;SDS011;9459;50.254;19.014;2022-08-19T14:50:46;8.38;;;4.95;;
18659;SDS011;9459;50.254;19.014;2022-08-19T14:53:15;8.15;;;5.10;;
18659;SDS011;9459;50.254;19.014;2022-08-19T14:55:44;7.70;;;5.05;;
18659;SDS011;9459;50.254;19.014;2022-08-19T14:58:13;12.70;;;5.28;;
18659;SDS011;9459;50.254;19.014;2022-08-19T15:00:56;9.10;;;5.25;;
18659;SDS011;9459;50.254;19.014;2022-08-19T15:03:26;11.40;;;5.97;;
18659;SDS011;9459;50.254;19.014;2022-08-19T15:05:55;13.65;;;6.00;;
18659;SDS011;9459;50.254;19.014;2022-08-19T15:08:26;11.67;;;6.37;;
18659;SDS011;9459;50.254;19.014;2022-08-19T15:13:24;9.95;;;5.68;;